createdAt,value
2018-08-30T00:02:07.049Z,1.00
2018-08-30T00:05:11.846Z,1.53
2018-08-30T00:08:16.309Z,1.30
2018-08-30T00:11:20.916Z,1.50
2018-08-30T00:14:25.306Z,1.30
2018-08-30T00:17:29.705Z,1.40
2018-08-30T00:20:34.124Z,1.10
2018-08-30T00:23:38.550Z,1.77
2018-08-30T00:26:42.923Z,1.40
2018-08-30T00:29:47.317Z,1.30
2018-08-30T00:32:51.727Z,1.30
2018-08-30T00:35:56.661Z,1.30
2018-08-30T00:39:01.065Z,1.30
2018-08-30T00:42:05.501Z,1.50
2018-08-30T00:45:10.165Z,1.50
2018-08-30T00:48:14.554Z,1.10
2018-08-30T00:51:19.037Z,1.33
2018-08-30T00:54:23.526Z,1.43
2018-08-30T00:57:27.996Z,1.40
2018-08-30T01:00:32.428Z,1.32
2018-08-30T01:03:37.095Z,1.50
2018-08-30T01:06:41.475Z,1.80
2018-08-30T01:09:53.368Z,1.40
2018-08-30T01:12:57.950Z,1.60
2018-08-30T01:16:02.667Z,1.40
2018-08-30T01:19:07.036Z,1.53
2018-08-30T01:22:11.438Z,1.33
2018-08-30T01:25:15.862Z,1.30
2018-08-30T01:28:20.351Z,1.17
2018-08-30T01:31:24.741Z,1.20
2018-08-30T01:34:29.140Z,1.50
2018-08-30T01:37:34.090Z,1.33
2018-08-30T01:40:39.285Z,1.35
2018-08-30T01:43:43.751Z,1.53
2018-08-30T01:46:48.152Z,1.70
2018-08-30T01:49:52.526Z,1.27
2018-08-30T01:52:57.049Z,1.40
2018-08-30T01:56:01.599Z,1.50
2018-08-30T01:59:06.074Z,1.40
2018-08-30T02:02:10.489Z,1.77
2018-08-30T02:05:14.863Z,1.60
2018-08-30T02:08:19.270Z,1.32
2018-08-30T02:11:23.645Z,1.30
2018-08-30T02:14:28.065Z,1.37
2018-08-30T02:17:32.570Z,1.40
2018-08-30T02:20:37.026Z,1.30
2018-08-30T02:23:41.524Z,1.20
2018-08-30T02:26:45.914Z,1.20
2018-08-30T02:29:50.328Z,1.35
2018-08-30T02:32:54.762Z,1.23
2018-08-30T02:35:59.173Z,1.57
2018-08-30T02:39:03.625Z,1.60
2018-08-30T02:42:07.994Z,1.50
2018-08-30T02:45:12.525Z,1.27
2018-08-30T02:48:16.912Z,1.20
2018-08-30T02:51:21.286Z,1.33
2018-08-30T02:54:25.688Z,1.13
2018-08-30T02:57:30.065Z,1.63
2018-08-30T03:00:34.457Z,0.90
2018-08-30T03:03:38.877Z,1.10
2018-08-30T03:06:43.390Z,1.40
2018-08-30T03:09:47.846Z,1.40
2018-08-30T03:12:52.264Z,1.23
2018-08-30T03:15:57.634Z,1.27
2018-08-30T03:19:02.194Z,1.17
2018-08-30T03:22:07.262Z,1.13
2018-08-30T03:25:11.764Z,1.20
2018-08-30T03:28:17.228Z,1.20
2018-08-30T03:31:21.613Z,1.10
2018-08-30T03:34:26.021Z,1.23
2018-08-30T03:37:30.451Z,1.03
2018-08-30T03:40:37.834Z,1.10
2018-08-30T03:43:42.219Z,1.07
2018-08-30T03:46:46.600Z,1.30
2018-08-30T03:49:50.965Z,1.07
2018-08-30T03:52:55.313Z,1.10
2018-08-30T03:55:59.699Z,1.10
2018-08-30T03:59:04.097Z,1.03
2018-08-30T04:02:08.517Z,1.40
2018-08-30T04:05:13.367Z,0.97
2018-08-30T04:08:17.764Z,1.10
2018-08-30T04:11:22.366Z,1.33
2018-08-30T04:14:26.760Z,1.00
2018-08-30T04:17:31.385Z,1.00
2018-08-30T04:20:35.758Z,1.17
2018-08-30T04:23:40.398Z,1.00
2018-08-30T04:26:44.871Z,1.20
2018-08-30T04:29:49.382Z,1.13
2018-08-30T04:32:53.782Z,0.90
2018-08-30T04:35:58.185Z,1.43
2018-08-30T04:39:02.658Z,1.03
2018-08-30T04:42:07.098Z,1.03
2018-08-30T04:45:11.635Z,1.20
2018-08-30T04:48:16.335Z,1.20
2018-08-30T04:51:21.121Z,1.00
2018-08-30T04:54:25.919Z,0.80
2018-08-30T04:57:30.448Z,1.00
2018-08-30T05:00:35.739Z,1.00
2018-08-30T05:03:40.453Z,0.67
2018-08-30T05:06:44.926Z,0.80
2018-08-30T05:09:56.503Z,0.83
2018-08-30T05:13:01.208Z,0.80
2018-08-30T05:16:05.751Z,1.00
2018-08-30T05:19:10.359Z,1.37
2018-08-30T05:22:15.153Z,0.90
2018-08-30T05:25:19.539Z,1.00
2018-08-30T05:28:23.946Z,1.30
2018-08-30T05:31:28.716Z,1.50
2018-08-30T05:34:33.264Z,1.20
2018-08-30T05:37:37.770Z,1.33
2018-08-30T05:40:42.442Z,1.33
2018-08-30T05:43:47.259Z,1.40
2018-08-30T05:46:51.715Z,1.50
2018-08-30T05:49:56.392Z,1.40
2018-08-30T05:53:00.805Z,1.90
2018-08-30T05:56:05.324Z,1.63
2018-08-30T05:59:09.701Z,1.30
2018-08-30T06:02:14.171Z,1.70
2018-08-30T06:05:18.685Z,1.87
2018-08-30T06:08:23.277Z,1.77
2018-08-30T06:11:27.717Z,2.20
2018-08-30T06:14:32.222Z,2.00
2018-08-30T06:17:36.704Z,1.93
2018-08-30T06:20:41.230Z,1.77
2018-08-30T06:23:45.609Z,1.83
2018-08-30T06:26:50.358Z,2.20
2018-08-30T06:29:54.610Z,2.20
2018-08-30T06:32:59.295Z,1.83
2018-08-30T06:36:03.775Z,1.93
2018-08-30T06:39:08.545Z,1.50
2018-08-30T06:42:12.936Z,1.87
2018-08-30T06:45:17.382Z,1.67
2018-08-30T06:48:22.066Z,1.80
2018-08-30T06:51:26.400Z,1.27
2018-08-30T06:54:31.075Z,1.77
2018-08-30T06:57:35.474Z,2.27
2018-08-30T07:00:39.938Z,1.70
2018-08-30T07:03:44.353Z,1.70
2018-08-30T07:06:48.728Z,1.43
2018-08-30T07:09:53.270Z,1.63
2018-08-30T07:12:57.850Z,1.47
2018-08-30T07:16:02.371Z,1.30
2018-08-30T07:19:07.168Z,1.30
2018-08-30T07:22:11.517Z,1.30
2018-08-30T07:25:16.008Z,1.20
2018-08-30T07:28:20.423Z,1.30
2018-08-30T07:31:24.814Z,1.53
2018-08-30T07:34:29.293Z,1.10
2018-08-30T07:37:33.785Z,0.90
2018-08-30T07:40:38.201Z,1.00
2018-08-30T07:43:42.749Z,1.17
2018-08-30T07:46:47.364Z,1.07
2018-08-30T07:49:51.765Z,1.10
2018-08-30T07:52:56.646Z,1.33
2018-08-30T07:56:01.081Z,1.00
2018-08-30T07:59:05.685Z,1.17
2018-08-30T08:02:10.118Z,1.27
2018-08-30T08:05:14.489Z,1.10
2018-08-30T08:08:18.926Z,1.40
2018-08-30T08:11:23.324Z,1.17
2018-08-30T08:14:27.812Z,1.30
2018-08-30T08:17:32.226Z,1.20
2018-08-30T08:20:36.679Z,1.50
2018-08-30T08:23:41.308Z,1.30
2018-08-30T08:26:45.754Z,1.30
2018-08-30T08:29:50.163Z,1.47
2018-08-30T08:32:54.592Z,1.67
2018-08-30T08:35:59.384Z,1.57
2018-08-30T08:39:05.245Z,1.43
2018-08-30T08:42:09.634Z,1.40
2018-08-30T08:45:14.148Z,1.37
2018-08-30T08:48:18.730Z,1.67
2018-08-30T08:51:23.199Z,1.40
2018-08-30T08:54:27.789Z,1.47
2018-08-30T08:57:32.327Z,1.50
2018-08-30T09:00:36.705Z,1.30
2018-08-30T09:03:41.157Z,1.47
2018-08-30T09:06:45.740Z,1.60
2018-08-30T09:09:50.222Z,1.67
2018-08-30T09:12:54.981Z,1.30
2018-08-30T09:15:59.398Z,1.60
2018-08-30T09:19:05.925Z,1.47
2018-08-30T09:22:10.552Z,1.90
2018-08-30T09:25:15.397Z,2.27
2018-08-30T09:28:20.009Z,1.50
2018-08-30T09:31:24.501Z,1.30
2018-08-30T09:34:29.067Z,1.57
2018-08-30T09:37:33.491Z,1.90
2018-08-30T09:40:38.061Z,2.13
2018-08-30T09:43:42.500Z,1.60
2018-08-30T09:46:46.825Z,1.53
2018-08-30T09:49:51.458Z,1.47
2018-08-30T09:52:56.433Z,2.13
2018-08-30T09:56:00.839Z,1.63
2018-08-30T09:59:05.608Z,2.10
2018-08-30T10:02:15.793Z,1.90
2018-08-30T10:05:20.629Z,2.47
2018-08-30T10:08:25.352Z,1.80
2018-08-30T10:11:30.090Z,2.40
2018-08-30T10:14:35.289Z,2.47
2018-08-30T10:17:40.073Z,1.90
2018-08-30T10:20:44.631Z,2.33
2018-08-30T10:23:49.343Z,2.10
2018-08-30T10:26:53.974Z,2.40
2018-08-30T10:29:58.355Z,2.57
2018-08-30T10:33:02.950Z,2.40
2018-08-30T10:36:07.547Z,2.10
2018-08-30T10:39:11.920Z,2.20
2018-08-30T10:42:16.348Z,2.43
2018-08-30T10:45:21.124Z,2.03
2018-08-30T10:48:25.599Z,2.50
2018-08-30T10:51:29.937Z,2.37
2018-08-30T10:54:34.299Z,2.17
2018-08-30T10:57:38.727Z,2.23
2018-08-30T11:00:43.292Z,2.50
2018-08-30T11:03:47.864Z,2.20
2018-08-30T11:06:52.254Z,2.40
2018-08-30T11:09:56.823Z,2.52
2018-08-30T11:13:01.292Z,2.37
2018-08-30T11:16:05.630Z,2.60
2018-08-30T11:19:10.068Z,3.03
2018-08-30T11:22:14.501Z,2.50
2018-08-30T11:25:18.878Z,3.37
2018-08-30T11:28:23.298Z,2.93
2018-08-30T11:31:27.911Z,3.13
2018-08-30T11:34:32.422Z,3.10
2018-08-30T11:37:36.802Z,3.07
2018-08-30T11:40:41.214Z,3.27
2018-08-30T11:43:45.666Z,3.10
2018-08-30T11:46:50.074Z,3.27
2018-08-30T11:49:54.461Z,3.43
2018-08-30T11:52:58.886Z,4.33
2018-08-30T11:56:03.421Z,4.20
2018-08-30T11:59:08.054Z,4.57
2018-08-30T12:02:12.556Z,4.53
2018-08-30T12:05:17.005Z,5.77
2018-08-30T12:08:21.755Z,5.20
2018-08-30T12:11:26.359Z,5.10
2018-08-30T12:14:31.086Z,5.25
2018-08-30T12:17:35.474Z,6.50
2018-08-30T12:20:40.127Z,5.20
2018-08-30T12:23:44.410Z,5.53
2018-08-30T12:26:48.830Z,5.40
2018-08-30T12:29:53.334Z,5.13
2018-08-30T12:32:57.817Z,5.40
2018-08-30T12:36:02.614Z,4.53
2018-08-30T12:39:10.090Z,4.47
2018-08-30T12:42:14.516Z,4.30
2018-08-30T12:45:19.079Z,4.40
2018-08-30T12:48:23.522Z,5.27
2018-08-30T12:51:28.358Z,4.60
2018-08-30T12:54:32.700Z,3.87
2018-08-30T12:57:37.083Z,4.00
2018-08-30T13:00:42.289Z,4.30
2018-08-30T13:03:47.927Z,5.05
2018-08-30T13:06:57.384Z,4.87
2018-08-30T13:10:01.953Z,4.73
2018-08-30T13:13:07.078Z,4.57
2018-08-30T13:16:11.361Z,4.20
2018-08-30T13:19:15.827Z,4.60
2018-08-30T13:22:21.311Z,4.10
2018-08-30T13:25:25.738Z,4.97
2018-08-30T13:28:30.225Z,5.30
2018-08-30T13:31:35.021Z,4.53
2018-08-30T13:34:39.353Z,4.60
2018-08-30T13:37:44.146Z,4.70
2018-08-30T13:40:48.506Z,4.80
2018-08-30T13:43:53.050Z,5.17
2018-08-30T13:46:57.250Z,4.27
2018-08-30T13:50:01.756Z,5.40
2018-08-30T13:53:06.309Z,5.30
2018-08-30T13:56:11.023Z,5.03
2018-08-30T13:59:15.406Z,3.87
2018-08-30T14:02:19.756Z,4.43
2018-08-30T14:05:24.347Z,5.37
2018-08-30T14:08:28.781Z,5.07
2018-08-30T14:11:33.198Z,5.63
2018-08-30T14:14:37.541Z,6.73
2018-08-30T14:17:41.978Z,7.50
2018-08-30T14:20:46.585Z,7.03
2018-08-30T14:23:51.125Z,6.93
2018-08-30T14:26:55.522Z,6.80
2018-08-30T14:29:59.876Z,8.63
2018-08-30T14:33:04.468Z,7.30
2018-08-30T14:36:08.623Z,9.80
2018-08-30T14:39:13.149Z,10.17
2018-08-30T14:42:17.624Z,9.13
2018-08-30T14:45:22.029Z,10.60
2018-08-30T14:48:26.386Z,9.37
2018-08-30T14:51:30.898Z,9.03
2018-08-30T14:54:35.275Z,8.03
2018-08-30T14:57:39.691Z,7.17
2018-08-30T15:00:44.159Z,7.20
2018-08-30T15:03:48.541Z,6.90
2018-08-30T15:06:52.925Z,7.23
2018-08-30T15:09:57.334Z,9.57
2018-08-30T15:13:01.843Z,6.40
2018-08-30T15:16:06.583Z,6.30
2018-08-30T15:19:11.300Z,7.10
2018-08-30T15:22:15.625Z,6.70
2018-08-30T15:25:20.067Z,7.13
2018-08-30T15:28:24.497Z,7.63
2018-08-30T15:31:28.930Z,8.43
2018-08-30T15:34:33.402Z,6.90
2018-08-30T15:37:37.748Z,7.10
2018-08-30T15:40:42.509Z,6.83
2018-08-30T15:43:47.560Z,6.97
2018-08-30T15:46:52.110Z,6.97
2018-08-30T15:49:56.576Z,7.57
2018-08-30T15:53:01.285Z,7.40
2018-08-30T15:56:06.063Z,6.87
2018-08-30T15:59:10.497Z,6.87
2018-08-30T16:02:15.053Z,7.10
2018-08-30T16:05:19.451Z,6.40
2018-08-30T16:08:24.148Z,7.58
2018-08-30T16:11:28.540Z,7.63
2018-08-30T16:14:32.969Z,6.95
2018-08-30T16:17:37.328Z,7.67
2018-08-30T16:20:41.977Z,6.87
2018-08-30T16:23:46.345Z,7.63
2018-08-30T16:26:51.001Z,5.83
2018-08-30T16:29:55.646Z,6.23
2018-08-30T16:33:00.165Z,6.60
2018-08-30T16:36:04.805Z,7.00
2018-08-30T16:39:11.472Z,6.37
2018-08-30T16:42:15.924Z,6.10
2018-08-30T16:45:20.352Z,5.53
2018-08-30T16:48:24.808Z,5.53
2018-08-30T16:51:29.221Z,5.87
2018-08-30T16:54:40.406Z,5.90
2018-08-30T16:57:45.190Z,5.67
2018-08-30T17:00:49.597Z,5.90
2018-08-30T17:03:54.059Z,5.97
2018-08-30T17:06:58.580Z,6.13
2018-08-30T17:10:02.989Z,6.00
2018-08-30T17:13:07.677Z,5.80
2018-08-30T17:16:12.134Z,5.60
2018-08-30T17:19:25.364Z,5.90
2018-08-30T17:22:29.713Z,6.43
2018-08-30T17:25:34.301Z,6.47
2018-08-30T17:28:38.792Z,6.30
2018-08-30T17:31:43.442Z,6.13
2018-08-30T17:34:47.979Z,5.90
2018-08-30T17:37:53.417Z,6.37
2018-08-30T17:40:57.796Z,6.00
2018-08-30T17:44:02.338Z,6.43
2018-08-30T17:47:06.778Z,5.50
2018-08-30T17:50:11.536Z,6.03
2018-08-30T17:53:15.934Z,4.70
2018-08-30T17:56:20.531Z,5.97
2018-08-30T17:59:25.209Z,6.27
2018-08-30T18:02:29.469Z,7.10
2018-08-30T18:05:33.909Z,5.60
2018-08-30T18:08:38.316Z,6.17
2018-08-30T18:11:42.746Z,5.30
2018-08-30T18:14:47.175Z,6.25
2018-08-30T18:17:51.551Z,5.90
2018-08-30T18:20:55.953Z,5.13
2018-08-30T18:24:00.333Z,6.47
2018-08-30T18:27:04.965Z,6.03
2018-08-30T18:30:10.845Z,6.07
2018-08-30T18:33:15.493Z,9.43
2018-08-30T18:36:20.155Z,8.13
2018-08-30T18:39:24.626Z,8.70
2018-08-30T18:42:29.175Z,11.80
2018-08-30T18:45:33.473Z,9.57
2018-08-30T18:48:37.933Z,6.43
2018-08-30T18:51:42.404Z,5.50
2018-08-30T18:54:47.034Z,6.93
2018-08-30T18:57:51.383Z,5.70
2018-08-30T19:00:55.822Z,7.30
2018-08-30T19:04:00.213Z,7.12
2018-08-30T19:07:04.708Z,8.10
2018-08-30T19:10:09.271Z,8.73
2018-08-30T19:13:13.817Z,10.03
2018-08-30T19:16:23.333Z,11.80
2018-08-30T19:19:28.436Z,14.43
2018-08-30T19:22:32.858Z,10.60
2018-08-30T19:25:37.440Z,10.03
2018-08-30T19:28:42.704Z,8.53
2018-08-30T19:31:47.077Z,7.10
2018-08-30T19:34:51.477Z,8.20
2018-08-30T19:37:55.827Z,10.00
2018-08-30T19:41:05.897Z,11.30
2018-08-30T19:44:11.297Z,12.00
2018-08-30T19:47:15.746Z,6.33
2018-08-30T19:50:20.465Z,7.13
2018-08-30T19:53:24.849Z,7.83
2018-08-30T19:56:29.362Z,14.33
2018-08-30T19:59:34.099Z,13.40
2018-08-30T20:02:38.669Z,13.37
2018-08-30T20:05:43.025Z,8.50
2018-08-30T20:08:47.414Z,14.73
2018-08-30T20:11:52.016Z,11.93
2018-08-30T20:14:56.430Z,13.37
2018-08-30T20:18:00.893Z,13.27
2018-08-30T20:21:05.388Z,13.67
2018-08-30T20:24:10.976Z,7.70
2018-08-30T20:27:15.368Z,7.90
2018-08-30T20:30:19.762Z,6.43
2018-08-30T20:33:24.529Z,7.07
2018-08-30T20:36:28.898Z,7.07
2018-08-30T20:39:33.260Z,13.20
2018-08-30T20:42:37.969Z,10.70
2018-08-30T20:45:42.336Z,8.37
2018-08-30T20:48:47.004Z,12.50
2018-08-30T20:51:51.461Z,19.53
2018-08-30T20:54:55.889Z,12.13
2018-08-30T20:58:00.264Z,13.13
2018-08-30T21:01:04.677Z,11.97
2018-08-30T21:04:09.469Z,9.15
2018-08-30T21:07:13.870Z,8.13
2018-08-30T21:10:18.345Z,7.70
2018-08-30T21:13:22.708Z,6.63
2018-08-30T21:16:27.132Z,7.87
2018-08-30T21:19:31.522Z,7.27
2018-08-30T21:22:35.969Z,7.27
2018-08-30T21:25:41.482Z,7.30
2018-08-30T21:28:45.953Z,6.57
2018-08-30T21:31:50.345Z,6.33
2018-08-30T21:34:54.747Z,6.50
2018-08-30T21:38:00.013Z,6.63
2018-08-30T21:41:05.076Z,6.10
2018-08-30T21:44:10.638Z,6.50
2018-08-30T21:47:17.233Z,5.77
2018-08-30T21:50:23.767Z,6.10
2018-08-30T21:53:28.193Z,6.60
2018-08-30T21:56:32.600Z,7.00
2018-08-30T21:59:37.025Z,6.33
2018-08-30T22:02:41.549Z,7.50
2018-08-30T22:05:45.928Z,6.03
2018-08-30T22:08:50.334Z,6.87
2018-08-30T22:11:54.721Z,7.00
2018-08-30T22:14:59.329Z,5.77
2018-08-30T22:18:03.691Z,6.70
2018-08-30T22:21:08.069Z,7.93
2018-08-30T22:24:12.546Z,7.33
2018-08-30T22:27:16.922Z,6.77
2018-08-30T22:30:21.372Z,7.27
2018-08-30T22:33:25.879Z,6.73
2018-08-30T22:36:30.223Z,6.57
2018-08-30T22:39:34.747Z,8.20
2018-08-30T22:42:39.147Z,8.70
2018-08-30T22:45:43.628Z,10.80
2018-08-30T22:48:48.034Z,10.50
2018-08-30T22:51:52.435Z,8.83
2018-08-30T22:54:56.885Z,7.60
2018-08-30T22:58:01.236Z,7.93
2018-08-30T23:01:05.697Z,8.37
2018-08-30T23:04:11.095Z,6.97
2018-08-30T23:07:15.570Z,7.77
2018-08-30T23:10:19.986Z,8.03
2018-08-30T23:13:24.368Z,7.67
2018-08-30T23:16:28.764Z,8.93
2018-08-30T23:19:33.177Z,7.73
2018-08-30T23:22:37.733Z,8.20
2018-08-30T23:25:42.290Z,7.80
2018-08-30T23:28:46.649Z,7.27
2018-08-30T23:31:51.134Z,6.07
2018-08-30T23:34:55.516Z,5.93
2018-08-30T23:37:59.928Z,5.53
2018-08-30T23:41:04.365Z,6.35
2018-08-30T23:44:09.394Z,6.70
2018-08-30T23:47:13.954Z,6.73
2018-08-30T23:50:18.713Z,5.20
2018-08-30T23:53:23.300Z,5.57
2018-08-30T23:56:28.021Z,5.73
2018-08-30T23:59:49.188Z,6.27
